Time;durP1;ratioP1;P1;durP2;ratioP2;P2;SDS_P1;SDS_P2;PMS_P1;PMS_P2;Temp;Humidity;BMP_temperature;BMP_pressure;BME280_temperature;BME280_humidity;BME280_pressure;Samples;Min_cycle;Max_cycle;Signal;HPM_P1;HPM_P2
2023/03/05 00:02:12;;;;;;;50.65;28.65;;;;;;;;;;5062642;28;20326;-91
2023/03/05 00:04:38;;;;;;;49.88;28.23;;;;;;;;;;5080499;28;20045;-92
2023/03/05 00:07:04;;;;;;;45.42;27.55;;;;;;;;;;5080481;28;20021;-91
2023/03/05 00:09:31;;;;;;;47.40;27.67;;;;;;;;;;5062763;28;20052;-90
2023/03/05 00:15:01;;;;;;;39.10;21.60;;;;;;;;;;5080636;28;20360;-90
2023/03/05 00:17:27;;;;;;;39.42;21.80;;;;;;;;;;5080415;28;20024;-91
2023/03/05 00:19:53;;;;;;;36.05;21.27;;;;;;;;;;5061707;28;20032;-91
2023/03/05 00:22:19;;;;;;;36.22;21.27;;;;;;;;;;5060468;28;20028;-90
2023/03/05 00:24:45;;;;;;;36.40;21.13;;;;;;;;;;5049877;28;20035;-90
2023/03/05 00:27:11;;;;;;;35.08;20.83;;;;;;;;;;5062191;28;20024;-91
2023/03/05 00:29:37;;;;;;;39.00;20.83;;;;;;;;;;5061844;28;20039;-90
2023/03/05 00:32:03;;;;;;;34.35;19.73;;;;;;;;;;5062101;28;20025;-91
2023/03/05 00:34:30;;;;;;;33.33;20.13;;;;;;;;;;5079600;28;20028;-91
2023/03/05 00:36:56;;;;;;;31.90;18.92;;;;;;;;;;5079976;28;20107;-91
2023/03/05 00:39:22;;;;;;;33.70;19.25;;;;;;;;;;5061533;28;20036;-92
2023/03/05 00:41:49;;;;;;;37.90;21.17;;;;;;;;;;5079553;28;20071;-90
2023/03/05 00:44:15;;;;;;;36.45;20.58;;;;;;;;;;5079493;28;20043;-89
2023/03/05 00:46:41;;;;;;;38.92;21.40;;;;;;;;;;5079205;28;20063;-90
2023/03/05 00:49:07;;;;;;;38.45;22.02;;;;;;;;;;5061695;28;20025;-90
2023/03/05 00:51:33;;;;;;;40.03;22.02;;;;;;;;;;5079640;28;20052;-90
2023/03/05 00:53:59;;;;;;;37.40;21.70;;;;;;;;;;5079321;28;20029;-90
2023/03/05 00:56:25;;;;;;;40.60;22.55;;;;;;;;;;5061506;28;20242;-90
2023/03/05 01:01:55;;;;;;;34.88;20.45;;;;;;;;;;5099024;28;20082;-91
2023/03/05 01:04:21;;;;;;;38.17;21.77;;;;;;;;;;5099416;28;20115;-91
2023/03/05 01:06:47;;;;;;;39.50;21.67;;;;;;;;;;5099641;28;20043;-91
2023/03/05 01:09:13;;;;;;;36.53;20.98;;;;;;;;;;5098917;28;20027;-90
2023/03/05 01:14:56;;;;;;;37.58;21.40;;;;;;;;;;5078892;28;20420;-91
2023/03/05 01:17:22;;;;;;;38.58;21.35;;;;;;;;;;5082040;28;20028;-90
2023/03/05 01:19:48;;;;;;;37.65;21.70;;;;;;;;;;5098855;28;20035;-90
2023/03/05 01:22:14;;;;;;;36.45;21.35;;;;;;;;;;5099077;28;20047;-91
2023/03/05 01:24:40;;;;;;;37.22;19.73;;;;;;;;;;5081089;28;20358;-91
2023/03/05 01:27:07;;;;;;;35.58;19.42;;;;;;;;;;5099159;28;20056;-90
2023/03/05 01:29:33;;;;;;;33.08;17.83;;;;;;;;;;5080911;28;20088;-90
2023/03/05 01:32:01;;;;;;;28.63;17.77;;;;;;;;;;5080950;28;20112;-91
2023/03/05 01:34:27;;;;;;;33.35;16.35;;;;;;;;;;5098756;28;20028;-90
2023/03/05 01:36:53;;;;;;;29.30;15.63;;;;;;;;;;5080732;28;20036;-91
2023/03/05 01:39:19;;;;;;;27.70;15.27;;;;;;;;;;5098931;28;20024;-91
2023/03/05 01:45:24;;;;;;;25.25;14.68;;;;;;;;;;5098778;28;20389;-91
2023/03/05 01:47:50;;;;;;;23.90;14.40;;;;;;;;;;5080486;28;20024;-94
2023/03/05 01:50:18;;;;;;;26.88;14.48;;;;;;;;;;5098747;28;20028;-91
2023/03/05 01:52:49;;;;;;;22.73;13.35;;;;;;;;;;5098646;28;20020;-90
2023/03/05 01:55:17;;;;;;;23.25;13.88;;;;;;;;;;5080480;28;20024;-91
2023/03/05 01:58:04;;;;;;;20.50;12.70;;;;;;;;;;5098137;28;20444;-91
2023/03/05 02:00:41;;;;;;;22.65;13.02;;;;;;;;;;5098484;28;20063;-91
2023/03/05 02:03:08;;;;;;;22.67;12.75;;;;;;;;;;5044282;28;20036;-91
2023/03/05 02:05:36;;;;;;;22.33;12.63;;;;;;;;;;5078158;28;20023;-90
2023/03/05 02:08:05;;;;;;;24.33;12.80;;;;;;;;;;5077985;28;20028;-93
2023/03/05 02:11:06;;;;;;;20.17;12.50;;;;;;;;;;5060428;28;20028;-91
2023/03/05 02:13:37;;;;;;;21.98;12.68;;;;;;;;;;5016478;28;20022;-92
2023/03/05 02:16:03;;;;;;;21.13;11.82;;;;;;;;;;5012123;28;20034;-93
2023/03/05 02:18:29;;;;;;;21.17;12.43;;;;;;;;;;4980498;28;20022;-94
2023/03/05 02:20:55;;;;;;;20.70;12.25;;;;;;;;;;4980456;28;20069;-93
2023/03/05 02:23:22;;;;;;;19.58;12.10;;;;;;;;;;4996672;28;20050;-92
2023/03/05 02:25:48;;;;;;;19.98;11.65;;;;;;;;;;4996937;28;20423;-93
2023/03/05 02:28:17;;;;;;;18.70;11.93;;;;;;;;;;4989630;28;20104;-93
2023/03/05 02:30:43;;;;;;;17.13;11.15;;;;;;;;;;5002811;28;20030;-92
2023/03/05 02:33:09;;;;;;;18.63;12.25;;;;;;;;;;5013533;28;20030;-92
2023/03/05 02:35:35;;;;;;;19.08;11.90;;;;;;;;;;5016032;28;20033;-91
2023/03/05 02:38:01;;;;;;;17.27;11.75;;;;;;;;;;5016077;28;20081;-91
2023/03/05 02:40:27;;;;;;;19.15;11.93;;;;;;;;;;4998486;28;20058;-91
2023/03/05 02:45:56;;;;;;;19.67;11.90;;;;;;;;;;4996768;28;20037;-93
2023/03/05 02:48:22;;;;;;;19.90;12.00;;;;;;;;;;5049437;28;20419;-92
2023/03/05 02:50:48;;;;;;;19.45;12.35;;;;;;;;;;5045444;28;20024;-91
2023/03/05 02:53:15;;;;;;;21.42;12.45;;;;;;;;;;5059820;28;20044;-93
2023/03/05 02:55:41;;;;;;;21.10;12.75;;;;;;;;;;5059747;28;20029;-92
2023/03/05 03:01:11;;;;;;;24.52;13.07;;;;;;;;;;5075755;28;20059;-91
2023/03/05 03:03:37;;;;;;;20.25;12.32;;;;;;;;;;5097679;28;20020;-92
2023/03/05 03:06:03;;;;;;;21.00;12.25;;;;;;;;;;5079811;28;20031;-90
2023/03/05 03:08:29;;;;;;;22.70;13.27;;;;;;;;;;5097827;28;20020;-91
2023/03/05 03:10:55;;;;;;;21.35;13.25;;;;;;;;;;5059471;28;20032;-92
2023/03/05 03:13:22;;;;;;;20.25;11.98;;;;;;;;;;5076287;28;20031;-92
2023/03/05 03:15:48;;;;;;;23.17;12.73;;;;;;;;;;5076170;28;20028;-92
2023/03/05 03:18:14;;;;;;;21.30;12.82;;;;;;;;;;5077152;28;20029;-92
2023/03/05 03:20:40;;;;;;;21.67;12.98;;;;;;;;;;5089733;28;20024;-91
2023/03/05 03:23:06;;;;;;;20.98;12.35;;;;;;;;;;5099723;28;20024;-92
2023/03/05 03:25:32;;;;;;;20.27;12.30;;;;;;;;;;5083463;28;20067;-92
2023/03/05 03:31:08;;;;;;;19.00;11.82;;;;;;;;;;5101540;28;20043;-92
2023/03/05 03:33:34;;;;;;;;;;;;;;;;;;5101578;28;20122;-93
2023/03/05 03:36:00;;;;;;;25.35;11.82;;;;;;;;;;5083346;28;20290;-92
2023/03/05 03:38:26;;;;;;;19.20;11.85;;;;;;;;;;5100583;28;20035;-89
2023/03/05 03:40:52;;;;;;;20.40;12.10;;;;;;;;;;5086971;28;20024;-91
2023/03/05 03:46:22;;;;;;;16.27;10.60;;;;;;;;;;5080899;28;20116;-93
2023/03/05 03:48:51;;;;;;;15.90;10.38;;;;;;;;;;5080522;28;20033;-93
2023/03/05 03:51:18;;;;;;;19.80;11.52;;;;;;;;;;5080344;28;20025;-92
2023/03/05 03:53:44;;;;;;;17.75;11.30;;;;;;;;;;5064514;28;20021;-92
2023/03/05 03:56:10;;;;;;;17.10;10.80;;;;;;;;;;5100862;28;20028;-91
2023/03/05 04:01:40;;;;;;;16.02;10.80;;;;;;;;;;5091780;28;20067;-92
2023/03/05 04:04:06;;;;;;;15.88;10.13;;;;;;;;;;5100507;28;20032;-92
2023/03/05 04:06:33;;;;;;;19.55;10.82;;;;;;;;;;5100727;28;20024;-93
2023/03/05 04:08:59;;;;;;;17.00;10.68;;;;;;;;;;5100860;28;20043;-94
2023/03/05 04:11:25;;;;;;;16.83;11.27;;;;;;;;;;5100413;28;20424;-93
2023/03/05 04:13:51;;;;;;;20.90;12.25;;;;;;;;;;5081824;28;20433;-94
2023/03/05 04:16:18;;;;;;;17.20;11.57;;;;;;;;;;5100452;28;20111;-93
2023/03/05 04:18:44;;;;;;;18.85;11.73;;;;;;;;;;5100453;28;20020;-92
2023/03/05 04:21:10;;;;;;;19.00;11.07;;;;;;;;;;5100049;28;20050;-94
2023/03/05 04:23:36;;;;;;;17.48;10.65;;;;;;;;;;5083023;28;20063;-93
2023/03/05 04:26:03;;;;;;;20.13;11.13;;;;;;;;;;5082249;28;20406;-94
2023/03/05 04:28:29;;;;;;;17.88;10.65;;;;;;;;;;5100104;28;20028;-93
2023/03/05 04:30:55;;;;;;;16.48;10.43;;;;;;;;;;5099928;28;20406;-92
2023/03/05 04:33:21;;;;;;;16.88;10.88;;;;;;;;;;5099495;28;20050;-94
2023/03/05 04:35:47;;;;;;;16.95;10.07;;;;;;;;;;5081388;28;20481;-93
2023/03/05 04:38:13;;;;;;;16.48;10.43;;;;;;;;;;5081786;28;20410;-92
2023/03/05 04:40:40;;;;;;;16.23;10.55;;;;;;;;;;5081231;28;20020;-92
2023/03/05 04:43:06;;;;;;;17.85;11.23;;;;;;;;;;5079399;28;20036;-92
2023/03/05 04:45:32;;;;;;;18.80;11.98;;;;;;;;;;5061737;28;20093;-92
2023/03/05 04:47:58;;;;;;;18.92;11.20;;;;;;;;;;5079737;28;20032;-91
2023/03/05 04:50:25;;;;;;;25.85;14.50;;;;;;;;;;5096584;28;20031;-92
2023/03/05 04:52:51;;;;;;;25.65;13.88;;;;;;;;;;5099490;28;20429;-91
2023/03/05 04:55:17;;;;;;;19.33;12.35;;;;;;;;;;5099318;28;20028;-93
2023/03/05 04:58:14;;;;;;;18.13;10.55;;;;;;;;;;5099314;28;20016;-93
2023/03/05 05:00:41;;;;;;;21.20;12.35;;;;;;;;;;5081347;28;20111;-94
2023/03/05 05:03:07;;;;;;;38.25;18.48;;;;;;;;;;5099187;28;20040;-94
2023/03/05 05:05:33;;;;;;;44.95;20.75;;;;;;;;;;5081604;28;20028;-94
2023/03/05 05:07:59;;;;;;;41.08;21.05;;;;;;;;;;5099487;28;20099;-94
2023/03/05 05:10:25;;;;;;;29.50;16.20;;;;;;;;;;5099224;28;20027;-93
2023/03/05 05:16:40;;;;;;;24.13;13.25;;;;;;;;;;5099450;28;20464;-92
2023/03/05 05:19:07;;;;;;;24.65;14.20;;;;;;;;;;5081213;28;20047;-93
2023/03/05 05:21:33;;;;;;;20.70;12.32;;;;;;;;;;5099258;28;20287;-92
2023/03/05 05:23:59;;;;;;;20.67;12.63;;;;;;;;;;5098919;28;20410;-93
2023/03/05 05:26:26;;;;;;;19.73;11.88;;;;;;;;;;5098802;28;20020;-92
2023/03/05 05:31:56;;;;;;;23.70;14.02;;;;;;;;;;5098935;28;20063;-93
2023/03/05 05:34:24;;;;;;;26.60;14.68;;;;;;;;;;5098987;28;20031;-91
2023/03/05 05:36:50;;;;;;;25.65;14.85;;;;;;;;;;5098984;28;20015;-92
2023/03/05 05:39:16;;;;;;;25.48;16.48;;;;;;;;;;5080837;28;20027;-93
2023/03/05 05:41:42;;;;;;;26.95;15.82;;;;;;;;;;5098751;28;20038;-92
2023/03/05 05:47:25;;;;;;;18.20;11.10;;;;;;;;;;5098757;28;20078;-91
2023/03/05 05:49:51;;;;;;;20.33;12.13;;;;;;;;;;5098730;28;20058;-92
2023/03/05 05:52:17;;;;;;;20.35;12.38;;;;;;;;;;5080461;28;20036;-92
2023/03/05 05:54:44;;;;;;;18.02;11.10;;;;;;;;;;5080053;28;20036;-92
2023/03/05 05:57:10;;;;;;;18.35;11.55;;;;;;;;;;5093574;28;20119;-94
2023/03/05 06:02:40;;;;;;;17.52;11.23;;;;;;;;;;5097719;28;20043;-93
2023/03/05 06:05:07;;;;;;;22.00;13.23;;;;;;;;;;5098143;28;20024;-93
2023/03/05 06:07:36;;;;;;;19.10;12.68;;;;;;;;;;5098156;28;20024;-90
2023/03/05 06:10:02;;;;;;;21.67;13.60;;;;;;;;;;5069558;28;20039;-94
2023/03/05 06:12:28;;;;;;;20.77;11.80;;;;;;;;;;5098300;28;20395;-93
2023/03/05 06:18:12;;;;;;;20.80;13.27;;;;;;;;;;5098004;28;20039;-93
2023/03/05 06:20:38;;;;;;;23.23;14.70;;;;;;;;;;5082654;28;20028;-94
2023/03/05 06:23:05;;;;;;;19.05;12.55;;;;;;;;;;5097103;28;20077;-93
2023/03/05 06:25:31;;;;;;;22.67;12.88;;;;;;;;;;5090855;28;20306;-93
2023/03/05 06:27:57;;;;;;;20.13;11.27;;;;;;;;;;5097790;28;20042;-93
2023/03/05 06:33:27;;;;;;;17.08;11.00;;;;;;;;;;5090034;28;20092;-95
2023/03/05 06:35:53;;;;;;;19.67;11.35;;;;;;;;;;5097726;28;20020;-93
2023/03/05 06:38:19;;;;;;;18.27;11.23;;;;;;;;;;5097919;28;20016;-94
2023/03/05 06:40:45;;;;;;;19.70;10.82;;;;;;;;;;5097906;28;20093;-94
2023/03/05 06:43:11;;;;;;;20.42;10.98;;;;;;;;;;5098055;28;20020;-95
2023/03/05 06:45:37;;;;;;;17.75;11.02;;;;;;;;;;5097917;28;20020;-95
2023/03/05 06:48:04;;;;;;;16.83;11.25;;;;;;;;;;5097657;28;20028;-96
2023/03/05 06:50:30;;;;;;;18.50;11.13;;;;;;;;;;5079871;28;20021;-94
2023/03/05 06:52:56;;;;;;;19.20;11.35;;;;;;;;;;5080321;28;20439;-96
2023/03/05 06:55:22;;;;;;;19.08;11.85;;;;;;;;;;5079425;28;20032;-95
2023/03/05 06:57:48;;;;;;;19.88;11.43;;;;;;;;;;5086424;28;20027;-94
2023/03/05 07:00:14;;;;;;;18.27;11.27;;;;;;;;;;5094004;28;20028;-91
2023/03/05 07:02:40;;;;;;;17.98;10.63;;;;;;;;;;5098676;28;20043;-95
2023/03/05 07:05:06;;;;;;;17.80;11.20;;;;;;;;;;5083059;28;20330;-95
2023/03/05 07:07:33;;;;;;;17.60;11.00;;;;;;;;;;5101798;28;20406;-95
2023/03/05 07:09:59;;;;;;;20.92;11.32;;;;;;;;;;5101740;28;20401;-95
2023/03/05 07:12:25;;;;;;;22.10;11.75;;;;;;;;;;5082718;28;20131;-95
2023/03/05 07:14:51;;;;;;;20.38;10.82;;;;;;;;;;5072583;28;20020;-95
2023/03/05 07:17:17;;;;;;;17.30;10.43;;;;;;;;;;5097930;28;20136;-93
2023/03/05 07:19:43;;;;;;;17.30;11.20;;;;;;;;;;5101363;28;20414;-94
2023/03/05 07:22:10;;;;;;;18.05;10.77;;;;;;;;;;5083591;28;20078;-95
2023/03/05 07:24:36;;;;;;;20.45;11.10;;;;;;;;;;5072908;28;20036;-95
2023/03/05 07:27:02;;;;;;;17.45;10.82;;;;;;;;;;5080900;28;20028;-92
2023/03/05 07:29:28;;;;;;;18.58;10.65;;;;;;;;;;5081050;28;20025;-93
2023/03/05 07:31:55;;;;;;;20.50;11.48;;;;;;;;;;5080780;28;20390;-93
2023/03/05 07:34:21;;;;;;;16.58;10.35;;;;;;;;;;5065839;28;20128;-95
2023/03/05 07:36:51;;;;;;;19.85;10.90;;;;;;;;;;5101444;28;20028;-95
2023/03/05 07:39:19;;;;;;;22.80;11.88;;;;;;;;;;5101843;28;20032;-94
2023/03/05 07:41:46;;;;;;;22.45;12.68;;;;;;;;;;5082679;28;20028;-94
2023/03/05 07:44:30;;;;;;;21.30;12.30;;;;;;;;;;5101537;28;20448;-93
2023/03/05 07:46:56;;;;;;;30.25;14.95;;;;;;;;;;5080779;28;20628;-94
2023/03/05 07:49:22;;;;;;;24.52;12.80;;;;;;;;;;5093667;28;20024;-94
2023/03/05 07:51:49;;;;;;;16.85;10.35;;;;;;;;;;5096703;28;20051;-94
2023/03/05 07:54:15;;;;;;;18.33;11.60;;;;;;;;;;5068660;28;20433;-95
2023/03/05 07:56:41;;;;;;;17.30;11.07;;;;;;;;;;5064861;28;20118;-94
2023/03/05 07:59:08;;;;;;;20.88;11.43;;;;;;;;;;5083079;28;20059;-94
2023/03/05 08:01:35;;;;;;;16.50;9.90;;;;;;;;;;5099939;28;20146;-94
2023/03/05 08:04:01;;;;;;;20.95;12.15;;;;;;;;;;5082683;28;20097;-96
2023/03/05 08:06:29;;;;;;;37.03;18.27;;;;;;;;;;5101284;28;20103;-96
2023/03/05 08:08:55;;;;;;;30.63;15.57;;;;;;;;;;5099635;28;20030;-94
2023/03/05 08:11:21;;;;;;;50.45;22.88;;;;;;;;;;5083498;28;20031;-96
2023/03/05 08:13:47;;;;;;;24.23;11.82;;;;;;;;;;5095418;28;20050;-93
2023/03/05 08:16:15;;;;;;;25.50;14.93;;;;;;;;;;5098307;28;20054;-95
2023/03/05 08:18:41;;;;;;;21.60;13.45;;;;;;;;;;5100672;28;20111;-96
2023/03/05 08:21:15;;;;;;;22.30;12.98;;;;;;;;;;5100375;28;20036;-93
2023/03/05 08:23:41;;;;;;;21.77;12.32;;;;;;;;;;5099683;28;20034;-93
2023/03/05 08:26:15;;;;;;;28.17;13.05;;;;;;;;;;5084723;28;20013;-94
2023/03/05 08:28:59;;;;;;;23.70;13.00;;;;;;;;;;5096734;28;20028;-93
2023/03/05 08:31:26;;;;;;;21.38;12.85;;;;;;;;;;5099706;28;20036;-94
2023/03/05 08:33:54;;;;;;;20.08;11.63;;;;;;;;;;5100245;28;20028;-93
2023/03/05 08:36:20;;;;;;;17.50;10.93;;;;;;;;;;5099939;28;20405;-92
2023/03/05 08:38:47;;;;;;;18.13;11.65;;;;;;;;;;5091600;28;20116;-93
2023/03/05 08:41:13;;;;;;;17.83;10.82;;;;;;;;;;5080021;28;20284;-91
2023/03/05 08:47:01;;;;;;;20.20;11.48;;;;;;;;;;5079421;28;20036;-93
2023/03/05 08:49:27;;;;;;;20.63;11.85;;;;;;;;;;5079549;28;20029;-93
2023/03/05 08:51:53;;;;;;;20.08;11.55;;;;;;;;;;5078857;28;20142;-94
2023/03/05 08:54:19;;;;;;;19.13;12.10;;;;;;;;;;5072638;28;20417;-93
2023/03/05 08:56:46;;;;;;;20.92;11.55;;;;;;;;;;5079527;28;20326;-94
2023/03/05 08:59:12;;;;;;;20.45;11.98;;;;;;;;;;5079905;28;20062;-94
2023/03/05 09:01:38;;;;;;;19.15;11.77;;;;;;;;;;5079449;28;20059;-93
2023/03/05 09:04:04;;;;;;;22.20;13.18;;;;;;;;;;5070187;28;20041;-93
2023/03/05 09:06:30;;;;;;;19.80;12.43;;;;;;;;;;5086243;28;20044;-93
2023/03/05 09:08:56;;;;;;;19.75;11.75;;;;;;;;;;5096805;28;20420;-94
2023/03/05 09:11:22;;;;;;;19.75;11.57;;;;;;;;;;5099206;28;20028;-92
2023/03/05 09:13:48;;;;;;;21.00;13.70;;;;;;;;;;5099502;28;20413;-91
2023/03/05 09:16:16;;;;;;;36.33;20.02;;;;;;;;;;5098536;28;20325;-90
2023/03/05 09:18:42;;;;;;;26.67;15.68;;;;;;;;;;5099211;28;20026;-93
2023/03/05 09:21:16;;;;;;;21.58;12.88;;;;;;;;;;5098369;28;20024;-91
2023/03/05 09:23:43;;;;;;;23.90;14.00;;;;;;;;;;5099161;28;20020;-92
2023/03/05 09:26:11;;;;;;;26.23;17.17;;;;;;;;;;5084950;28;20028;-92
2023/03/05 09:28:55;;;;;;;33.58;20.40;;;;;;;;;;5078258;28;20036;-92
2023/03/05 09:31:22;;;;;;;23.40;13.77;;;;;;;;;;5078630;28;20047;-91
2023/03/05 09:33:48;;;;;;;22.33;14.40;;;;;;;;;;5078464;28;20024;-91
2023/03/05 09:36:25;;;;;;;20.02;12.38;;;;;;;;;;5078644;28;20115;-91
2023/03/05 09:38:51;;;;;;;23.73;12.93;;;;;;;;;;5076118;28;20054;-91
2023/03/05 09:41:26;;;;;;;18.27;12.07;;;;;;;;;;5070997;28;20090;-91
2023/03/05 09:53:15;;;;;;;17.85;10.52;;;;;;;;;;5094135;28;20024;-89
2023/03/05 09:55:52;;;;;;;17.60;11.02;;;;;;;;;;5078163;28;20044;-89
2023/03/05 09:58:22;;;;;;;18.05;11.65;;;;;;;;;;5077829;28;20064;-91
2023/03/05 10:04:11;;;;;;;16.60;11.13;;;;;;;;;;5076642;28;20118;-90
2023/03/05 10:06:45;;;;;;;18.50;11.50;;;;;;;;;;5087580;28;20031;-89
2023/03/05 10:09:11;;;;;;;24.15;13.32;;;;;;;;;;5079413;28;20032;-89
2023/03/05 10:11:46;;;;;;;24.15;12.45;;;;;;;;;;5092292;28;20020;-91
2023/03/05 10:14:33;;;;;;;20.42;12.30;;;;;;;;;;5081565;28;20096;-89
2023/03/05 10:17:18;;;;;;;24.40;12.80;;;;;;;;;;5080270;28;20123;-89
2023/03/05 10:20:10;;;;;;;23.73;13.60;;;;;;;;;;5097613;28;20047;-90
2023/03/05 10:22:56;;;;;;;22.80;12.57;;;;;;;;;;5016697;28;20046;-91
2023/03/05 10:25:22;;;;;;;26.27;12.38;;;;;;;;;;5016658;28;20040;-89
2023/03/05 10:27:56;;;;;;;17.98;9.95;;;;;;;;;;5016809;28;20193;-91
2023/03/05 10:30:53;;;;;;;15.40;9.75;;;;;;;;;;5016846;28;20026;-90
2023/03/05 10:33:23;;;;;;;23.10;13.38;;;;;;;;;;5015414;28;20033;-89
2023/03/05 10:36:00;;;;;;;22.38;12.43;;;;;;;;;;5016496;28;20121;-89
2023/03/05 10:38:30;;;;;;;29.50;15.68;;;;;;;;;;5016150;28;20033;-89
2023/03/05 10:40:57;;;;;;;21.75;11.90;;;;;;;;;;5004382;28;20030;-90
2023/03/05 10:43:25;;;;;;;16.83;9.75;;;;;;;;;;5002316;28;20026;-89
2023/03/05 10:49:17;;;;;;;15.68;9.75;;;;;;;;;;5011848;28;20080;-81
2023/03/05 10:52:03;;;;;;;14.60;10.02;;;;;;;;;;4995913;28;20110;-88
2023/03/05 10:54:30;;;;;;;14.57;8.98;;;;;;;;;;4957869;29;20039;-88
2023/03/05 10:57:03;;;;;;;18.10;9.45;;;;;;;;;;4957500;29;20098;-88
2023/03/05 11:02:55;;;;;;;15.70;9.13;;;;;;;;;;5010608;28;20088;-87
2023/03/05 11:05:40;;;;;;;14.98;9.00;;;;;;;;;;4997801;28;20041;-88
2023/03/05 11:08:24;;;;;;;14.75;8.43;;;;;;;;;;5019791;28;20350;-87
2023/03/05 11:11:02;;;;;;;16.98;10.05;;;;;;;;;;5019694;28;20021;-89
2023/03/05 11:13:29;;;;;;;21.92;11.70;;;;;;;;;;5015657;28;20079;-88
2023/03/05 11:18:58;;;;;;;;;;;;;;;;;;5008920;28;20065;-89
2023/03/05 11:21:26;;;;;;;22.90;12.68;;;;;;;;;;4994638;28;19917;-87
2023/03/05 11:24:12;;;;;;;17.13;10.10;;;;;;;;;;5015903;28;20026;-88
2023/03/05 11:26:45;;;;;;;17.42;10.25;;;;;;;;;;5022976;28;20044;-88
2023/03/05 11:29:16;;;;;;;14.50;9.30;;;;;;;;;;5010368;28;20026;-88
2023/03/05 11:31:42;;;;;;;16.25;10.77;;;;;;;;;;5061162;28;20085;-88
2023/03/05 11:34:18;;;;;;;22.52;12.15;;;;;;;;;;5092769;28;20322;-88
2023/03/05 11:37:02;;;;;;;24.05;13.10;;;;;;;;;;5092628;28;20032;-88
2023/03/05 11:39:31;;;;;;;15.00;9.40;;;;;;;;;;5093599;28;20053;-87
2023/03/05 11:42:00;;;;;;;18.20;10.27;;;;;;;;;;5087723;28;20127;-88
2023/03/05 11:44:59;;;;;;;21.20;11.38;;;;;;;;;;5079933;28;20028;-88
2023/03/05 11:47:35;;;;;;;15.00;10.02;;;;;;;;;;5038327;28;20442;-86
2023/03/05 11:50:10;;;;;;;19.80;10.80;;;;;;;;;;5038469;28;20098;-87
2023/03/05 11:52:42;;;;;;;25.65;14.65;;;;;;;;;;5038819;28;20036;-86
2023/03/05 11:55:15;;;;;;;13.13;8.50;;;;;;;;;;5009779;28;20044;-86
2023/03/05 11:57:43;;;;;;;17.63;7.60;;;;;;;;;;5038441;28;20052;-87
2023/03/05 12:00:13;;;;;;;9.07;6.47;;;;;;;;;;5035171;28;20037;-87
2023/03/05 12:02:39;;;;;;;12.02;6.63;;;;;;;;;;5018753;28;20034;-86
2023/03/05 12:05:07;;;;;;;17.38;10.73;;;;;;;;;;5018890;28;20065;-86
2023/03/05 12:07:41;;;;;;;20.50;11.32;;;;;;;;;;5018859;28;20054;-86
2023/03/05 12:10:13;;;;;;;13.52;6.85;;;;;;;;;;5011278;28;20075;-87
2023/03/05 12:12:48;;;;;;;10.68;6.03;;;;;;;;;;5018943;28;20025;-86
2023/03/05 12:15:36;;;;;;;12.50;8.10;;;;;;;;;;5018581;28;20033;-87
2023/03/05 12:18:11;;;;;;;17.90;9.52;;;;;;;;;;5002285;28;20440;-87
2023/03/05 12:20:55;;;;;;;12.93;8.13;;;;;;;;;;5018736;28;20076;-88
2023/03/05 12:23:22;;;;;;;13.18;8.27;;;;;;;;;;5059239;28;20044;-87
2023/03/05 12:25:54;;;;;;;12.73;7.70;;;;;;;;;;5078724;28;20467;-87
2023/03/05 12:28:35;;;;;;;11.43;7.40;;;;;;;;;;5091949;28;20123;-86
2023/03/05 12:31:21;;;;;;;17.27;9.35;;;;;;;;;;5095375;28;20062;-87
2023/03/05 12:33:47;;;;;;;14.25;8.60;;;;;;;;;;5097176;28;20048;-87
2023/03/05 12:36:17;;;;;;;16.85;9.30;;;;;;;;;;5120388;28;20028;-87
2023/03/05 12:38:45;;;;;;;14.35;9.13;;;;;;;;;;5108562;28;20043;-87
2023/03/05 12:41:23;;;;;;;19.73;11.57;;;;;;;;;;5098996;28;20050;-87
2023/03/05 12:44:04;;;;;;;21.17;11.63;;;;;;;;;;5098789;28;20043;-87
2023/03/05 12:46:31;;;;;;;21.30;10.88;;;;;;;;;;5099572;28;20016;-87
2023/03/05 12:48:58;;;;;;;12.27;7.22;;;;;;;;;;5099597;28;20516;-86
2023/03/05 12:51:35;;;;;;;10.93;7.20;;;;;;;;;;5099922;28;20032;-87
2023/03/05 12:54:19;;;;;;;12.88;8.20;;;;;;;;;;5099279;28;20035;-88
2023/03/05 12:56:46;;;;;;;17.80;9.95;;;;;;;;;;5099278;28;20026;-87
2023/03/05 12:59:13;;;;;;;11.02;7.85;;;;;;;;;;5099465;28;20027;-88
2023/03/05 13:04:51;;;;;;;15.15;9.63;;;;;;;;;;5096846;28;20043;-87
2023/03/05 13:07:18;;;;;;;12.18;7.63;;;;;;;;;;5078821;28;20483;-86
2023/03/05 13:09:54;;;;;;;12.38;8.25;;;;;;;;;;5061422;28;20024;-87
2023/03/05 13:12:20;;;;;;;16.15;10.15;;;;;;;;;;5078660;28;20024;-87
2023/03/05 13:14:48;;;;;;;13.32;8.73;;;;;;;;;;5079067;28;20028;-87
2023/03/05 13:17:32;;;;;;;14.98;9.35;;;;;;;;;;5078476;28;20433;-87
2023/03/05 13:19:59;;;;;;;13.05;8.68;;;;;;;;;;5070933;28;20036;-86
2023/03/05 13:22:25;;;;;;;22.83;8.90;;;;;;;;;;5078087;28;20318;-86
2023/03/05 13:25:05;;;;;;;14.77;8.77;;;;;;;;;;5047184;28;20343;-88
2023/03/05 13:27:32;;;;;;;15.82;9.30;;;;;;;;;;5053896;28;20021;-80
2023/03/05 13:29:58;;;;;;;15.63;8.80;;;;;;;;;;5058490;28;20025;-89
2023/03/05 13:32:28;;;;;;;17.58;10.18;;;;;;;;;;5041044;28;20021;-89
2023/03/05 13:35:01;;;;;;;13.18;8.32;;;;;;;;;;5058775;28;20029;-87
2023/03/05 13:37:29;;;;;;;13.10;8.52;;;;;;;;;;5058202;28;20036;-79
2023/03/05 13:39:58;;;;;;;24.23;11.32;;;;;;;;;;5078242;28;20464;-88
2023/03/05 13:42:33;;;;;;;20.30;10.27;;;;;;;;;;5060340;28;20103;-87
2023/03/05 13:45:29;;;;;;;25.85;11.43;;;;;;;;;;5078293;28;20031;-87
2023/03/05 13:47:59;;;;;;;15.27;9.05;;;;;;;;;;5016975;28;20038;-87
2023/03/05 13:50:28;;;;;;;12.02;8.40;;;;;;;;;;5017058;28;20026;-87
2023/03/05 13:52:55;;;;;;;18.30;11.48;;;;;;;;;;5016822;28;20421;-86
2023/03/05 13:55:21;;;;;;;19.08;10.35;;;;;;;;;;5027480;28;20038;-87
2023/03/05 13:57:49;;;;;;;14.45;9.82;;;;;;;;;;5036332;28;20140;-86
2023/03/05 14:00:30;;;;;;;20.30;13.15;;;;;;;;;;5036537;28;20088;-86
2023/03/05 14:02:58;;;;;;;18.60;10.48;;;;;;;;;;5036461;28;20040;-86
2023/03/05 14:05:24;;;;;;;18.08;12.57;;;;;;;;;;5036224;28;20412;-86
2023/03/05 14:07:51;;;;;;;17.02;12.32;;;;;;;;;;5036449;28;20309;-86
2023/03/05 14:10:29;;;;;;;14.45;11.48;;;;;;;;;;5036190;28;20029;-87
2023/03/05 14:12:56;;;;;;;15.63;9.20;;;;;;;;;;5036415;28;20068;-86
2023/03/05 14:21:47;;;;;;;20.48;11.88;;;;;;;;;;5036442;28;20107;-87
2023/03/05 14:24:19;;;;;;;24.73;12.05;;;;;;;;;;5058588;28;20028;-87
2023/03/05 14:26:50;;;;;;;15.00;9.77;;;;;;;;;;5097988;28;20024;-86
2023/03/05 14:29:19;;;;;;;21.15;11.43;;;;;;;;;;5097804;28;20540;-87
2023/03/05 14:31:45;;;;;;;14.32;7.63;;;;;;;;;;5097812;28;20060;-87
2023/03/05 14:34:17;;;;;;;8.73;6.20;;;;;;;;;;5098213;28;20020;-86
2023/03/05 14:36:47;;;;;;;14.93;8.25;;;;;;;;;;5097961;28;20020;-86
2023/03/05 14:39:26;;;;;;;41.38;17.40;;;;;;;;;;5067734;28;20032;-87
2023/03/05 14:41:52;;;;;;;85.43;48.30;;;;;;;;;;5057261;28;20037;-86
2023/03/05 14:44:19;;;;;;;18.30;11.40;;;;;;;;;;5039754;28;20028;-86
2023/03/05 14:46:49;;;;;;;12.90;8.35;;;;;;;;;;5058388;28;20027;-87
2023/03/05 14:49:15;;;;;;;18.00;9.88;;;;;;;;;;5068121;28;20414;-87
2023/03/05 14:51:43;;;;;;;13.13;9.32;;;;;;;;;;5059663;28;20032;-86
2023/03/05 14:54:22;;;;;;;17.05;9.52;;;;;;;;;;5077856;28;20031;-88
2023/03/05 14:56:48;;;;;;;11.10;7.20;;;;;;;;;;5077220;28;20036;-87
2023/03/05 14:59:15;;;;;;;14.75;7.93;;;;;;;;;;5082866;28;20032;-87
2023/03/05 15:01:41;;;;;;;16.55;8.40;;;;;;;;;;5071454;28;20074;-87
2023/03/05 15:04:07;;;;;;;17.90;8.98;;;;;;;;;;5059638;28;20123;-86
2023/03/05 15:06:36;;;;;;;13.10;8.43;;;;;;;;;;5091799;28;20047;-87
2023/03/05 15:09:03;;;;;;;10.70;7.07;;;;;;;;;;5097415;28;20020;-87
2023/03/05 15:11:29;;;;;;;10.20;6.20;;;;;;;;;;5097637;28;20052;-88
2023/03/05 15:13:55;;;;;;;14.98;10.75;;;;;;;;;;5097473;28;20073;-87
2023/03/05 15:16:22;;;;;;;16.88;11.50;;;;;;;;;;5097531;28;20024;-87
2023/03/05 15:18:48;;;;;;;32.05;21.00;;;;;;;;;;5099322;28;20402;-87
2023/03/05 15:21:14;;;;;;;19.02;11.35;;;;;;;;;;5082947;28;20039;-87
2023/03/05 15:23:43;;;;;;;17.60;10.55;;;;;;;;;;5101416;28;20066;-88
2023/03/05 15:26:11;;;;;;;20.35;13.63;;;;;;;;;;5101427;28;20032;-88
2023/03/05 15:28:38;;;;;;;17.63;11.77;;;;;;;;;;5083537;28;20432;-87
2023/03/05 15:31:04;;;;;;;22.02;13.63;;;;;;;;;;5083485;28;20074;-88
2023/03/05 15:33:31;;;;;;;18.88;12.02;;;;;;;;;;5101412;28;20409;-88
2023/03/05 15:35:57;;;;;;;16.50;11.10;;;;;;;;;;5100974;28;20063;-87
2023/03/05 15:38:24;;;;;;;17.33;11.23;;;;;;;;;;5100972;28;20035;-88
2023/03/05 15:40:50;;;;;;;11.52;7.65;;;;;;;;;;5101092;28;20021;-88
2023/03/05 15:43:17;;;;;;;15.73;9.43;;;;;;;;;;5101250;28;20078;-87
2023/03/05 15:45:43;;;;;;;18.65;11.00;;;;;;;;;;5100824;28;20012;-88
2023/03/05 15:48:09;;;;;;;19.83;10.77;;;;;;;;;;5083248;28;20054;-87
2023/03/05 15:50:35;;;;;;;20.75;12.10;;;;;;;;;;5101060;28;20023;-88
2023/03/05 15:53:01;;;;;;;24.92;14.93;;;;;;;;;;5083089;28;20068;-87
2023/03/05 15:55:27;;;;;;;40.42;21.92;;;;;;;;;;5100747;28;20032;-87